sensor_id;sensor_type;location;lat;lon;timestamp;pressure;altitude;pressure_sealevel;temperature;humidity
33845;BME280;20145;43.118;25.694;2023-03-01T00:02:20;100368.94;;;7.28;100.00
33845;BME280;20145;43.118;25.694;2023-03-01T00:04:46;100370.69;;;7.30;100.00
33845;BME280;20145;43.118;25.694;2023-03-01T00:07:12;100363.00;;;7.29;100.00
33845;BME280;20145;43.118;25.694;2023-03-01T00:09:37;100361.22;;;7.26;100.00
33845;BME280;20145;43.118;25.694;2023-03-01T00:12:04;100362.91;;;7.26;100.00
33845;BME280;20145;43.118;25.694;2023-03-01T00:14:29;100365.38;;;7.20;100.00
33845;BME280;20145;43.118;25.694;2023-03-01T00:16:55;100360.06;;;7.07;100.00
33845;BME280;20145;43.118;25.694;2023-03-01T00:19:20;100352.09;;;6.93;100.00
33845;BME280;20145;43.118;25.694;2023-03-01T00:21:48;100356.38;;;6.95;100.00
33845;BME280;20145;43.118;25.694;2023-03-01T00:24:14;100357.28;;;6.97;100.00
33845;BME280;20145;43.118;25.694;2023-03-01T00:26:40;100362.31;;;6.92;100.00
33845;BME280;20145;43.118;25.694;2023-03-01T00:29:06;100358.16;;;6.97;100.00
33845;BME280;20145;43.118;25.694;2023-03-01T00:31:33;100369.28;;;6.98;100.00
33845;BME280;20145;43.118;25.694;2023-03-01T00:34:01;100366.00;;;7.05;100.00
33845;BME280;20145;43.118;25.694;2023-03-01T00:36:35;100370.47;;;7.17;100.00
33845;BME280;20145;43.118;25.694;2023-03-01T00:39:03;100367.72;;;7.06;100.00
33845;BME280;20145;43.118;25.694;2023-03-01T00:41:29;100358.38;;;7.11;100.00
33845;BME280;20145;43.118;25.694;2023-03-01T00:43:55;100355.16;;;7.21;100.00
33845;BME280;20145;43.118;25.694;2023-03-01T00:46:22;100342.38;;;7.24;100.00
33845;BME280;20145;43.118;25.694;2023-03-01T00:48:49;100339.03;;;7.31;100.00
33845;BME280;20145;43.118;25.694;2023-03-01T00:51:21;100329.41;;;7.15;100.00
33845;BME280;20145;43.118;25.694;2023-03-01T00:53:47;100317.38;;;7.14;100.00
33845;BME280;20145;43.118;25.694;2023-03-01T00:56:14;100314.81;;;7.14;100.00
33845;BME280;20145;43.118;25.694;2023-03-01T00:58:40;100322.47;;;7.11;100.00
33845;BME280;20145;43.118;25.694;2023-03-01T01:01:19;100307.94;;;7.11;100.00
33845;BME280;20145;43.118;25.694;2023-03-01T01:03:50;100310.50;;;7.10;100.00
33845;BME280;20145;43.118;25.694;2023-03-01T01:06:28;100313.09;;;7.14;100.00
33845;BME280;20145;43.118;25.694;2023-03-01T01:08:54;100295.97;;;7.12;100.00
33845;BME280;20145;43.118;25.694;2023-03-01T01:11:22;100293.44;;;7.13;100.00
33845;BME280;20145;43.118;25.694;2023-03-01T01:13:49;100303.56;;;7.06;100.00
33845;BME280;20145;43.118;25.694;2023-03-01T01:16:17;100282.91;;;6.97;100.00
33845;BME280;20145;43.118;25.694;2023-03-01T01:18:43;100294.81;;;6.93;100.00
33845;BME280;20145;43.118;25.694;2023-03-01T01:21:11;100294.81;;;6.95;100.00
33845;BME280;20145;43.118;25.694;2023-03-01T01:23:39;100284.47;;;6.90;100.00
33845;BME280;20145;43.118;25.694;2023-03-01T01:26:07;100261.00;;;6.67;100.00
33845;BME280;20145;43.118;25.694;2023-03-01T01:28:33;100281.00;;;6.85;100.00
33845;BME280;20145;43.118;25.694;2023-03-01T01:30:59;100273.78;;;6.64;100.00
33845;BME280;20145;43.118;25.694;2023-03-01T01:33:25;100281.13;;;6.45;100.00
33845;BME280;20145;43.118;25.694;2023-03-01T01:35:50;100280.25;;;6.45;100.00
33845;BME280;20145;43.118;25.694;2023-03-01T01:38:16;100285.59;;;6.56;100.00
33845;BME280;20145;43.118;25.694;2023-03-01T01:40:45;100289.81;;;6.54;100.00
33845;BME280;20145;43.118;25.694;2023-03-01T01:43:27;100293.06;;;6.45;100.00
33845;BME280;20145;43.118;25.694;2023-03-01T01:45:56;100293.97;;;6.47;100.00
33845;BME280;20145;43.118;25.694;2023-03-01T01:48:46;100294.94;;;6.54;100.00
33845;BME280;20145;43.118;25.694;2023-03-01T01:51:18;100308.91;;;6.68;100.00
33845;BME280;20145;43.118;25.694;2023-03-01T01:53:49;100299.66;;;6.76;100.00
33845;BME280;20145;43.118;25.694;2023-03-01T01:56:16;100302.09;;;6.70;100.00
33845;BME280;20145;43.118;25.694;2023-03-01T01:58:44;100302.88;;;6.66;100.00
33845;BME280;20145;43.118;25.694;2023-03-01T02:01:11;100301.28;;;6.71;100.00
33845;BME280;20145;43.118;25.694;2023-03-01T02:03:38;100297.16;;;6.81;100.00
33845;BME280;20145;43.118;25.694;2023-03-01T02:06:28;100300.72;;;6.87;100.00
33845;BME280;20145;43.118;25.694;2023-03-01T02:09:11;100300.81;;;6.95;100.00
33845;BME280;20145;43.118;25.694;2023-03-01T02:11:37;100292.41;;;7.02;100.00
33845;BME280;20145;43.118;25.694;2023-03-01T02:14:04;100294.00;;;6.97;100.00
33845;BME280;20145;43.118;25.694;2023-03-01T02:16:30;100289.75;;;6.98;99.76
33845;BME280;20145;43.118;25.694;2023-03-01T02:18:57;100302.56;;;6.98;99.75
33845;BME280;20145;43.118;25.694;2023-03-01T02:21:56;100293.25;;;7.01;99.80
33845;BME280;20145;43.118;25.694;2023-03-01T02:26:54;100297.53;;;7.02;100.00
33845;BME280;20145;43.118;25.694;2023-03-01T02:29:23;100299.28;;;7.06;100.00
33845;BME280;20145;43.118;25.694;2023-03-01T02:31:49;100296.78;;;7.09;99.40
33845;BME280;20145;43.118;25.694;2023-03-01T02:34:24;100295.09;;;7.11;100.00
33845;BME280;20145;43.118;25.694;2023-03-01T02:36:59;100284.84;;;7.10;99.75
33845;BME280;20145;43.118;25.694;2023-03-01T02:39:33;100290.81;;;7.10;99.40
33845;BME280;20145;43.118;25.694;2023-03-01T02:42:01;100277.09;;;7.07;99.23
33845;BME280;20145;43.118;25.694;2023-03-01T02:44:28;100272.84;;;7.10;99.11
33845;BME280;20145;43.118;25.694;2023-03-01T02:46:55;100281.47;;;7.14;99.22
33845;BME280;20145;43.118;25.694;2023-03-01T02:49:26;100273.72;;;7.11;98.89
33845;BME280;20145;43.118;25.694;2023-03-01T02:54:40;100279.66;;;7.07;98.56
33845;BME280;20145;43.118;25.694;2023-03-01T02:57:08;100265.88;;;7.02;99.04
33845;BME280;20145;43.118;25.694;2023-03-01T02:59:35;100277.09;;;7.08;99.13
33845;BME280;20145;43.118;25.694;2023-03-01T03:05:10;100280.69;;;7.18;99.70
33845;BME280;20145;43.118;25.694;2023-03-01T03:07:39;100277.19;;;7.13;100.00
33845;BME280;20145;43.118;25.694;2023-03-01T03:10:06;100267.78;;;7.13;100.00
33845;BME280;20145;43.118;25.694;2023-03-01T03:12:32;100280.66;;;7.17;100.00
33845;BME280;20145;43.118;25.694;2023-03-01T03:14:58;100272.00;;;7.11;100.00
33845;BME280;20145;43.118;25.694;2023-03-01T03:17:24;100278.75;;;7.06;100.00
33845;BME280;20145;43.118;25.694;2023-03-01T03:19:49;100274.44;;;7.04;99.19
33845;BME280;20145;43.118;25.694;2023-03-01T03:22:15;100283.09;;;7.09;99.33
33845;BME280;20145;43.118;25.694;2023-03-01T03:24:41;100271.78;;;6.98;99.80
33845;BME280;20145;43.118;25.694;2023-03-01T03:27:07;100273.53;;;7.00;100.00
33845;BME280;20145;43.118;25.694;2023-03-01T03:29:33;100286.38;;;7.00;100.00
33845;BME280;20145;43.118;25.694;2023-03-01T03:31:59;100281.22;;;6.99;100.00
33845;BME280;20145;43.118;25.694;2023-03-01T03:34:24;100274.31;;;6.95;100.00
33845;BME280;20145;43.118;25.694;2023-03-01T03:36:56;100287.19;;;6.98;100.00
33845;BME280;20145;43.118;25.694;2023-03-01T03:39:28;100275.28;;;7.03;100.00
33845;BME280;20145;43.118;25.694;2023-03-01T03:41:54;100284.69;;;7.04;100.00
33845;BME280;20145;43.118;25.694;2023-03-01T03:44:21;100293.38;;;7.12;100.00
33845;BME280;20145;43.118;25.694;2023-03-01T03:46:46;100276.25;;;7.09;100.00
33845;BME280;20145;43.118;25.694;2023-03-01T03:49:12;100280.56;;;7.12;100.00
33845;BME280;20145;43.118;25.694;2023-03-01T03:51:37;100280.47;;;7.06;100.00
33845;BME280;20145;43.118;25.694;2023-03-01T03:54:03;100280.53;;;7.09;99.59
33845;BME280;20145;43.118;25.694;2023-03-01T03:56:28;100272.94;;;7.15;100.00
33845;BME280;20145;43.118;25.694;2023-03-01T03:58:54;100266.88;;;7.11;98.77
33845;BME280;20145;43.118;25.694;2023-03-01T04:01:20;100282.41;;;7.19;98.13
33845;BME280;20145;43.118;25.694;2023-03-01T04:03:45;100273.69;;;7.09;97.61
33845;BME280;20145;43.118;25.694;2023-03-01T04:06:19;100267.63;;;7.06;98.26
33845;BME280;20145;43.118;25.694;2023-03-01T04:08:45;100274.56;;;7.10;97.47
33845;BME280;20145;43.118;25.694;2023-03-01T04:11:11;100276.19;;;7.05;98.01
33845;BME280;20145;43.118;25.694;2023-03-01T04:13:54;100274.53;;;7.07;98.10
33845;BME280;20145;43.118;25.694;2023-03-01T04:16:19;100276.94;;;6.99;97.60
33845;BME280;20145;43.118;25.694;2023-03-01T04:18:45;100278.72;;;7.02;98.03
33845;BME280;20145;43.118;25.694;2023-03-01T04:21:11;100271.78;;;6.98;98.25
33845;BME280;20145;43.118;25.694;2023-03-01T04:23:37;100272.63;;;6.97;98.38
33845;BME280;20145;43.118;25.694;2023-03-01T04:26:03;100277.94;;;7.07;98.28
33845;BME280;20145;43.118;25.694;2023-03-01T04:30:56;100275.28;;;7.01;98.03
33845;BME280;20145;43.118;25.694;2023-03-01T04:33:22;100274.56;;;7.10;99.14
33845;BME280;20145;43.118;25.694;2023-03-01T04:35:49;100282.25;;;7.10;97.80
33845;BME280;20145;43.118;25.694;2023-03-01T04:38:16;100279.69;;;7.11;98.24
33845;BME280;20145;43.118;25.694;2023-03-01T04:40:42;100283.06;;;7.07;97.64
33845;BME280;20145;43.118;25.694;2023-03-01T04:43:10;100283.94;;;7.09;97.86
33845;BME280;20145;43.118;25.694;2023-03-01T04:45:36;100283.13;;;7.10;97.33
33845;BME280;20145;43.118;25.694;2023-03-01T04:48:03;100280.53;;;7.09;98.20
33845;BME280;20145;43.118;25.694;2023-03-01T04:50:29;100271.09;;;7.08;98.51
33845;BME280;20145;43.118;25.694;2023-03-01T04:52:55;100281.44;;;7.12;98.98
33845;BME280;20145;43.118;25.694;2023-03-01T04:55:25;100286.59;;;7.14;98.94
33845;BME280;20145;43.118;25.694;2023-03-01T04:57:51;100284.94;;;7.18;99.21
33845;BME280;20145;43.118;25.694;2023-03-01T05:00:17;100288.44;;;7.23;99.63
33845;BME280;20145;43.118;25.694;2023-03-01T05:02:49;100286.81;;;7.28;99.07
33845;BME280;20145;43.118;25.694;2023-03-01T05:05:20;100279.09;;;7.28;99.26
33845;BME280;20145;43.118;25.694;2023-03-01T05:07:46;100275.66;;;7.26;100.00
33845;BME280;20145;43.118;25.694;2023-03-01T05:10:12;100281.72;;;7.31;99.05
33845;BME280;20145;43.118;25.694;2023-03-01T05:12:37;100286.00;;;7.30;98.40
33845;BME280;20145;43.118;25.694;2023-03-01T05:15:04;100282.97;;;7.01;98.68
33845;BME280;20145;43.118;25.694;2023-03-01T05:17:33;100269.16;;;6.93;99.77
33845;BME280;20145;43.118;25.694;2023-03-01T05:19:59;100275.16;;;6.95;100.00
33845;BME280;20145;43.118;25.694;2023-03-01T05:22:26;100281.19;;;6.96;100.00
33845;BME280;20145;43.118;25.694;2023-03-01T05:24:51;100275.81;;;6.83;100.00
33845;BME280;20145;43.118;25.694;2023-03-01T05:27:19;100278.38;;;6.82;100.00
33845;BME280;20145;43.118;25.694;2023-03-01T05:29:47;100276.69;;;6.82;100.00
33845;BME280;20145;43.118;25.694;2023-03-01T05:32:13;100279.28;;;6.87;100.00
33845;BME280;20145;43.118;25.694;2023-03-01T05:34:41;100279.38;;;6.91;100.00
33845;BME280;20145;43.118;25.694;2023-03-01T05:37:07;100276.88;;;6.93;100.00
33845;BME280;20145;43.118;25.694;2023-03-01T05:39:33;100283.84;;;7.02;100.00
33845;BME280;20145;43.118;25.694;2023-03-01T05:42:00;100283.84;;;7.02;100.00
33845;BME280;20145;43.118;25.694;2023-03-01T05:44:28;100277.84;;;7.01;99.82
33845;BME280;20145;43.118;25.694;2023-03-01T05:46:54;100274.53;;;7.07;99.27
33845;BME280;20145;43.118;25.694;2023-03-01T05:49:20;100271.78;;;6.96;97.66
33845;BME280;20145;43.118;25.694;2023-03-01T05:51:51;100264.03;;;6.95;96.97
33845;BME280;20145;43.118;25.694;2023-03-01T05:54:18;100269.03;;;6.87;98.43
33845;BME280;20145;43.118;25.694;2023-03-01T05:56:44;100268.22;;;6.88;98.35
33845;BME280;20145;43.118;25.694;2023-03-01T05:59:10;100274.34;;;6.96;98.01
33845;BME280;20145;43.118;25.694;2023-03-01T06:01:36;100272.59;;;6.95;96.73
33845;BME280;20145;43.118;25.694;2023-03-01T06:04:03;100284.66;;;7.01;97.81
33845;BME280;20145;43.118;25.694;2023-03-01T06:06:29;100290.72;;;7.06;97.37
33845;BME280;20145;43.118;25.694;2023-03-01T06:08:58;100289.06;;;7.08;96.54
33845;BME280;20145;43.118;25.694;2023-03-01T06:11:23;100279.66;;;7.08;96.64
33845;BME280;20145;43.118;25.694;2023-03-01T06:13:49;100288.34;;;7.17;97.11
33845;BME280;20145;43.118;25.694;2023-03-01T06:16:15;100297.00;;;7.23;96.19
33845;BME280;20145;43.118;25.694;2023-03-01T06:18:41;100283.28;;;7.21;95.18
33845;BME280;20145;43.118;25.694;2023-03-01T06:21:07;100292.78;;;7.27;95.88
33845;BME280;20145;43.118;25.694;2023-03-01T06:23:35;100293.66;;;7.27;95.09
33845;BME280;20145;43.118;25.694;2023-03-01T06:26:05;100292.94;;;7.36;94.63
33845;BME280;20145;43.118;25.694;2023-03-01T06:28:31;100286.16;;;7.43;94.31
33845;BME280;20145;43.118;25.694;2023-03-01T06:30:56;100288.91;;;7.53;94.25
33845;BME280;20145;43.118;25.694;2023-03-01T06:33:22;100290.75;;;7.64;95.18
33845;BME280;20145;43.118;25.694;2023-03-01T06:35:50;100293.44;;;7.71;95.12
33845;BME280;20145;43.118;25.694;2023-03-01T06:38:16;100293.47;;;7.74;93.94
33845;BME280;20145;43.118;25.694;2023-03-01T06:40:44;100289.97;;;7.68;93.23
33845;BME280;20145;43.118;25.694;2023-03-01T06:43:10;100291.78;;;7.73;94.50
33845;BME280;20145;43.118;25.694;2023-03-01T06:45:36;100295.31;;;7.83;93.37
33845;BME280;20145;43.118;25.694;2023-03-01T06:48:04;100292.78;;;7.86;94.61
33845;BME280;20145;43.118;25.694;2023-03-01T06:50:30;100296.31;;;7.93;94.66
33845;BME280;20145;43.118;25.694;2023-03-01T06:52:56;100297.09;;;7.87;94.35
33845;BME280;20145;43.118;25.694;2023-03-01T06:55:22;100298.78;;;7.87;93.91
33845;BME280;20145;43.118;25.694;2023-03-01T06:57:48;100300.25;;;7.68;92.98
33845;BME280;20145;43.118;25.694;2023-03-01T07:00:14;100303.72;;;7.71;93.59
33845;BME280;20145;43.118;25.694;2023-03-01T07:02:39;100300.34;;;7.74;93.51
33845;BME280;20145;43.118;25.694;2023-03-01T07:05:06;100298.59;;;7.71;93.53
33845;BME280;20145;43.118;25.694;2023-03-01T07:07:31;100307.25;;;7.81;94.14
33845;BME280;20145;43.118;25.694;2023-03-01T07:09:57;100312.44;;;7.82;93.44
33845;BME280;20145;43.118;25.694;2023-03-01T07:12:23;100313.41;;;7.91;93.67
33845;BME280;20145;43.118;25.694;2023-03-01T07:14:48;100312.50;;;7.89;93.83
33845;BME280;20145;43.118;25.694;2023-03-01T07:17:14;100310.72;;;7.83;93.74
33845;BME280;20145;43.118;25.694;2023-03-01T07:19:39;100312.34;;;7.76;94.69
33845;BME280;20145;43.118;25.694;2023-03-01T07:22:05;100316.53;;;7.70;94.13
33845;BME280;20145;43.118;25.694;2023-03-01T07:24:33;100318.03;;;7.54;95.11
33845;BME280;20145;43.118;25.694;2023-03-01T07:26:59;100304.97;;;7.40;95.25
33845;BME280;20145;43.118;25.694;2023-03-01T07:29:24;100314.69;;;7.61;95.91
33845;BME280;20145;43.118;25.694;2023-03-01T07:31:50;100312.16;;;7.63;96.10
33845;BME280;20145;43.118;25.694;2023-03-01T07:34:16;100319.06;;;7.65;96.56
33845;BME280;20145;43.118;25.694;2023-03-01T07:36:41;100310.50;;;7.66;96.27
33845;BME280;20145;43.118;25.694;2023-03-01T07:39:09;100300.19;;;7.63;96.98
33845;BME280;20145;43.118;25.694;2023-03-01T07:41:35;100308.69;;;7.60;97.04
33845;BME280;20145;43.118;25.694;2023-03-01T07:44:01;100310.94;;;7.39;97.96
33845;BME280;20145;43.118;25.694;2023-03-01T07:46:26;100297.28;;;7.40;98.09
33845;BME280;20145;43.118;25.694;2023-03-01T07:48:52;100286.28;;;7.50;99.11
33845;BME280;20145;43.118;25.694;2023-03-01T07:51:18;100288.06;;;7.54;97.60
33845;BME280;20145;43.118;25.694;2023-03-01T07:53:46;100301.19;;;7.74;96.93
33845;BME280;20145;43.118;25.694;2023-03-01T07:56:14;100296.97;;;7.79;97.52
33845;BME280;20145;43.118;25.694;2023-03-01T07:58:42;100303.94;;;7.90;97.58
33845;BME280;20145;43.118;25.694;2023-03-01T08:01:09;100301.53;;;7.99;96.97
33845;BME280;20145;43.118;25.694;2023-03-01T08:03:36;100312.72;;;8.04;96.90
33845;BME280;20145;43.118;25.694;2023-03-01T08:06:03;100309.78;;;7.76;96.56
33845;BME280;20145;43.118;25.694;2023-03-01T08:08:29;100303.53;;;7.59;97.24
33845;BME280;20145;43.118;25.694;2023-03-01T08:11:03;100307.03;;;7.63;97.23
33845;BME280;20145;43.118;25.694;2023-03-01T08:13:30;100301.94;;;7.67;98.24
33845;BME280;20145;43.118;25.694;2023-03-01T08:16:04;100309.91;;;7.86;97.49
33845;BME280;20145;43.118;25.694;2023-03-01T08:18:30;100314.19;;;7.87;97.25
33845;BME280;20145;43.118;25.694;2023-03-01T08:21:04;100314.25;;;7.91;97.58
33845;BME280;20145;43.118;25.694;2023-03-01T08:23:30;100307.31;;;7.84;96.06
33845;BME280;20145;43.118;25.694;2023-03-01T08:26:05;100310.75;;;7.86;96.13
33845;BME280;20145;43.118;25.694;2023-03-01T08:28:31;100313.41;;;7.92;96.60
33845;BME280;20145;43.118;25.694;2023-03-01T08:30:57;100310.88;;;7.94;96.40
33845;BME280;20145;43.118;25.694;2023-03-01T08:33:23;100323.66;;;7.89;95.90
33845;BME280;20145;43.118;25.694;2023-03-01T08:35:48;100315.75;;;7.75;97.24
33845;BME280;20145;43.118;25.694;2023-03-01T08:38:14;100314.84;;;7.72;96.77
33845;BME280;20145;43.118;25.694;2023-03-01T08:40:40;100311.50;;;7.77;98.11
33845;BME280;20145;43.118;25.694;2023-03-01T08:43:05;100299.47;;;7.73;97.42
33845;BME280;20145;43.118;25.694;2023-03-01T08:45:31;100309.03;;;7.85;97.25
33845;BME280;20145;43.118;25.694;2023-03-01T08:47:56;100302.09;;;7.78;97.04
33845;BME280;20145;43.118;25.694;2023-03-01T08:50:23;100305.50;;;7.78;95.82
33845;BME280;20145;43.118;25.694;2023-03-01T08:52:50;100309.00;;;7.82;96.70
33845;BME280;20145;43.118;25.694;2023-03-01T08:55:16;100304.72;;;7.82;95.95
33845;BME280;20145;43.118;25.694;2023-03-01T08:57:43;100299.66;;;7.87;96.04
33845;BME280;20145;43.118;25.694;2023-03-01T09:00:09;100301.59;;;8.05;96.22
33845;BME280;20145;43.118;25.694;2023-03-01T09:02:36;100300.66;;;7.98;96.41
33845;BME280;20145;43.118;25.694;2023-03-01T09:05:02;100305.78;;;7.95;95.03
33845;BME280;20145;43.118;25.694;2023-03-01T09:07:28;100299.78;;;7.96;94.80
33845;BME280;20145;43.118;25.694;2023-03-01T09:09:54;100308.44;;;8.06;94.22
33845;BME280;20145;43.118;25.694;2023-03-01T09:12:21;100294.63;;;7.98;93.89
33845;BME280;20145;43.118;25.694;2023-03-01T09:14:46;100307.75;;;8.18;93.58
33845;BME280;20145;43.118;25.694;2023-03-01T09:17:12;100305.22;;;8.22;94.06
33845;BME280;20145;43.118;25.694;2023-03-01T09:19:37;100296.53;;;8.11;94.80
33845;BME280;20145;43.118;25.694;2023-03-01T09:22:04;100296.56;;;8.14;94.56
33845;BME280;20145;43.118;25.694;2023-03-01T09:24:30;100306.97;;;8.25;93.63
33845;BME280;20145;43.118;25.694;2023-03-01T09:26:56;100300.94;;;8.23;93.01
33845;BME280;20145;43.118;25.694;2023-03-01T09:29:22;100306.91;;;8.19;92.84
33845;BME280;20145;43.118;25.694;2023-03-01T09:31:48;100298.31;;;8.15;94.11
33845;BME280;20145;43.118;25.694;2023-03-01T09:34:14;100299.16;;;8.16;93.50
33845;BME280;20145;43.118;25.694;2023-03-01T09:36:41;100301.00;;;8.26;93.44
33845;BME280;20145;43.118;25.694;2023-03-01T09:39:07;100297.50;;;8.21;92.54
33845;BME280;20145;43.118;25.694;2023-03-01T09:44:51;100288.88;;;8.16;93.29
33845;BME280;20145;43.118;25.694;2023-03-01T09:47:27;100283.00;;;8.27;93.55
33845;BME280;20145;43.118;25.694;2023-03-01T09:50:16;100285.59;;;8.27;94.01
33845;BME280;20145;43.118;25.694;2023-03-01T09:53:10;100290.78;;;8.34;93.59
33845;BME280;20145;43.118;25.694;2023-03-01T10:00:50;100278.06;;;8.40;92.29
33845;BME280;20145;43.118;25.694;2023-03-01T10:03:26;100280.78;;;8.58;92.36
33845;BME280;20145;43.118;25.694;2023-03-01T10:06:09;100281.72;;;8.62;90.72
33845;BME280;20145;43.118;25.694;2023-03-01T10:08:41;100286.88;;;8.66;90.39
33845;BME280;20145;43.118;25.694;2023-03-01T10:11:23;100286.06;;;8.69;90.02
33845;BME280;20145;43.118;25.694;2023-03-01T10:14:03;100275.69;;;8.61;89.85
33845;BME280;20145;43.118;25.694;2023-03-01T10:19:02;100274.91;;;8.70;87.52
33845;BME280;20145;43.118;25.694;2023-03-01T10:21:43;100269.59;;;8.53;88.91
33845;BME280;20145;43.118;25.694;2023-03-01T10:24:15;100267.09;;;8.61;89.84
33845;BME280;20145;43.118;25.694;2023-03-01T10:26:54;100263.72;;;8.66;88.55
33845;BME280;20145;43.118;25.694;2023-03-01T10:29:24;100254.41;;;8.81;88.20
33845;BME280;20145;43.118;25.694;2023-03-01T10:31:52;100263.06;;;8.84;88.18
33845;BME280;20145;43.118;25.694;2023-03-01T10:34:31;100257.94;;;8.92;87.98
33845;BME280;20145;43.118;25.694;2023-03-01T10:37:01;100255.41;;;8.95;87.91
33845;BME280;20145;43.118;25.694;2023-03-01T10:39:33;100260.66;;;9.07;87.92
33845;BME280;20145;43.118;25.694;2023-03-01T10:42:02;100246.94;;;9.11;87.74
33845;BME280;20145;43.118;25.694;2023-03-01T10:44:55;100256.56;;;9.32;87.46
33845;BME280;20145;43.118;25.694;2023-03-01T10:47:24;100255.63;;;9.21;84.73
33845;BME280;20145;43.118;25.694;2023-03-01T10:50:01;100251.13;;;8.94;84.84
33845;BME280;20145;43.118;25.694;2023-03-01T10:52:59;100245.09;;;8.95;86.15
33845;BME280;20145;43.118;25.694;2023-03-01T10:55:38;100242.50;;;8.90;85.80
33845;BME280;20145;43.118;25.694;2023-03-01T10:58:22;100237.19;;;8.67;86.95
33845;BME280;20145;43.118;25.694;2023-03-01T11:03:30;100230.28;;;8.65;87.11
33845;BME280;20145;43.118;25.694;2023-03-01T11:06:21;100226.88;;;8.69;86.87
33845;BME280;20145;43.118;25.694;2023-03-01T11:08:49;100221.66;;;8.60;87.65
33845;BME280;20145;43.118;25.694;2023-03-01T11:11:22;100224.47;;;8.87;87.52
33845;BME280;20145;43.118;25.694;2023-03-01T11:14:07;100226.34;;;9.07;87.50
33845;BME280;20145;43.118;25.694;2023-03-01T11:16:40;100219.34;;;8.92;86.92
33845;BME280;20145;43.118;25.694;2023-03-01T11:21:41;100208.91;;;8.70;87.96
33845;BME280;20145;43.118;25.694;2023-03-01T11:24:13;100211.41;;;8.64;88.57
33845;BME280;20145;43.118;25.694;2023-03-01T11:26:45;100203.56;;;8.51;89.01
33845;BME280;20145;43.118;25.694;2023-03-01T11:29:37;100209.47;;;8.42;88.49
33845;BME280;20145;43.118;25.694;2023-03-01T11:32:08;100201.78;;;8.43;88.97
33845;BME280;20145;43.118;25.694;2023-03-01T11:37:28;100198.38;;;8.47;87.98
33845;BME280;20145;43.118;25.694;2023-03-01T11:43:04;100196.88;;;8.68;88.43
33845;BME280;20145;43.118;25.694;2023-03-01T11:51:24;100185.81;;;8.80;85.67
33845;BME280;20145;43.118;25.694;2023-03-01T11:54:30;100189.19;;;8.73;86.84
33845;BME280;20145;43.118;25.694;2023-03-01T11:57:34;100182.41;;;8.82;87.01
33845;BME280;20145;43.118;25.694;2023-03-01T12:08:47;100179.91;;;8.93;86.77
33845;BME280;20145;43.118;25.694;2023-03-01T12:24:31;100164.47;;;8.98;87.45
33845;BME280;20145;43.118;25.694;2023-03-01T12:30:25;100171.25;;;8.83;87.43
33845;BME280;20145;43.118;25.694;2023-03-01T12:38:40;100165.28;;;8.89;87.39
33845;BME280;20145;43.118;25.694;2023-03-01T12:43:54;100166.16;;;8.89;87.27
33845;BME280;20145;43.118;25.694;2023-03-01T12:49:20;100148.84;;;8.65;87.95
33845;BME280;20145;43.118;25.694;2023-03-01T12:51:57;100157.38;;;8.61;88.56
33845;BME280;20145;43.118;25.694;2023-03-01T12:54:29;100160.84;;;8.69;87.96
33845;BME280;20145;43.118;25.694;2023-03-01T12:56:59;100162.63;;;8.74;88.36
33845;BME280;20145;43.118;25.694;2023-03-01T12:59:36;100166.03;;;8.76;88.17
33845;BME280;20145;43.118;25.694;2023-03-01T13:02:19;100147.16;;;8.67;88.80
33845;BME280;20145;43.118;25.694;2023-03-01T13:17:51;100149.03;;;8.90;88.61
33845;BME280;20145;43.118;25.694;2023-03-01T13:20:20;100147.28;;;8.89;87.74
33845;BME280;20145;43.118;25.694;2023-03-01T13:22:47;100149.00;;;8.88;88.07
33845;BME280;20145;43.118;25.694;2023-03-01T13:25:16;100159.31;;;8.93;88.71
33845;BME280;20145;43.118;25.694;2023-03-01T13:27:44;100152.38;;;8.83;87.52
33845;BME280;20145;43.118;25.694;2023-03-01T13:35:58;100152.38;;;8.81;88.78
33845;BME280;20145;43.118;25.694;2023-03-01T13:38:48;100135.25;;;8.82;88.03
33845;BME280;20145;43.118;25.694;2023-03-01T13:46:47;100146.50;;;8.99;87.44
33845;BME280;20145;43.118;25.694;2023-03-01T13:49:16;100137.81;;;8.85;88.52
33845;BME280;20145;43.118;25.694;2023-03-01T13:51:47;100140.41;;;8.86;88.58
33845;BME280;20145;43.118;25.694;2023-03-01T13:54:15;100141.22;;;8.81;88.97
33845;BME280;20145;43.118;25.694;2023-03-01T13:56:41;100141.09;;;8.62;88.94
33845;BME280;20145;43.118;25.694;2023-03-01T13:59:20;100138.50;;;8.61;88.85
33845;BME280;20145;43.118;25.694;2023-03-01T14:01:57;100140.25;;;8.65;88.97
33845;BME280;20145;43.118;25.694;2023-03-01T14:04:29;100137.66;;;8.60;89.44
33845;BME280;20145;43.118;25.694;2023-03-01T14:07:19;100141.09;;;8.64;89.32
33845;BME280;20145;43.118;25.694;2023-03-01T14:09:48;100108.41;;;8.51;89.68
33845;BME280;20145;43.118;25.694;2023-03-01T14:14:50;100128.19;;;8.58;89.58
33845;BME280;20145;43.118;25.694;2023-03-01T14:17:49;100119.59;;;8.54;89.45
33845;BME280;20145;43.118;25.694;2023-03-01T14:20:18;100132.53;;;8.62;89.50
33845;BME280;20145;43.118;25.694;2023-03-01T14:22:45;100130.78;;;8.59;89.39
33845;BME280;20145;43.118;25.694;2023-03-01T14:25:37;100128.25;;;8.65;89.53
33845;BME280;20145;43.118;25.694;2023-03-01T14:30:44;100131.72;;;8.69;89.04
33845;BME280;20145;43.118;25.694;2023-03-01T14:33:29;100125.69;;;8.65;88.40
33845;BME280;20145;43.118;25.694;2023-03-01T14:36:03;100130.81;;;8.62;87.83
33845;BME280;20145;43.118;25.694;2023-03-01T14:40:59;100125.59;;;8.56;89.51
33845;BME280;20145;43.118;25.694;2023-03-01T14:43:29;100114.47;;;8.59;89.39
33845;BME280;20145;43.118;25.694;2023-03-01T14:45:55;100123.00;;;8.52;88.11
33845;BME280;20145;43.118;25.694;2023-03-01T14:48:21;100115.19;;;8.39;88.76